sensor_id;sensor_type;location;lat;lon;timestamp;pressure;altitude;pressure_sealevel;temperature;humidity
6204;BME280;3135;42.602;23.468;2024-01-30T00:02:16;148425.44;;;-3.72;100.00
6204;BME280;3135;42.602;23.468;2024-01-30T00:04:42;148394.75;;;-3.84;100.00
6204;BME280;3135;42.602;23.468;2024-01-30T00:07:08;148463.91;;;-3.56;100.00
6204;BME280;3135;42.602;23.468;2024-01-30T00:09:33;148484.34;;;-3.48;100.00
6204;BME280;3135;42.602;23.468;2024-01-30T00:11:59;148394.75;;;-3.84;100.00
6204;BME280;3135;42.602;23.468;2024-01-30T00:14:24;148407.53;;;-3.79;100.00
6204;BME280;3135;42.602;23.468;2024-01-30T00:16:53;148379.38;;;-3.90;100.00
6204;BME280;3135;42.602;23.468;2024-01-30T00:19:18;148306.38;;;-4.19;100.00
6204;BME280;3135;42.602;23.468;2024-01-30T00:21:44;148325.59;;;-4.12;100.00
6204;BME280;3135;42.602;23.468;2024-01-30T00:24:09;148365.25;;;-3.96;100.00
6204;BME280;3135;42.602;23.468;2024-01-30T00:26:35;148315.34;;;-4.16;100.00
6204;BME280;3135;42.602;23.468;2024-01-30T00:29:00;148356.34;;;-3.99;100.00
6204;BME280;3135;42.602;23.468;2024-01-30T00:31:26;148282.06;;;-4.29;100.00
6204;BME280;3135;42.602;23.468;2024-01-30T00:33:52;148273.13;;;-4.32;100.00
6204;BME280;3135;42.602;23.468;2024-01-30T00:36:17;148294.84;;;-4.24;100.00
6204;BME280;3135;42.602;23.468;2024-01-30T00:38:43;148332.00;;;-4.09;100.00
6204;BME280;3135;42.602;23.468;2024-01-30T00:41:08;148337.13;;;-4.07;100.00
6204;BME280;3135;42.602;23.468;2024-01-30T00:43:34;148274.41;;;-4.32;100.00
6204;BME280;3135;42.602;23.468;2024-01-30T00:45:59;148381.94;;;-3.89;100.00
6204;BME280;3135;42.602;23.468;2024-01-30T00:48:25;148356.34;;;-3.99;100.00
6204;BME280;3135;42.602;23.468;2024-01-30T00:50:50;148375.50;;;-3.92;100.00
6204;BME280;3135;42.602;23.468;2024-01-30T00:53:16;148364.00;;;-3.96;100.00
6204;BME280;3135;42.602;23.468;2024-01-30T00:55:41;148321.78;;;-4.13;100.00
6204;BME280;3135;42.602;23.468;2024-01-30T00:58:07;148323.03;;;-4.13;100.00
6204;BME280;3135;42.602;23.468;2024-01-30T01:00:33;148357.63;;;-3.99;100.00
6204;BME280;3135;42.602;23.468;2024-01-30T01:02:59;148289.75;;;-4.26;100.00
6204;BME280;3135;42.602;23.468;2024-01-30T01:05:24;148285.94;;;-4.27;100.00
6204;BME280;3135;42.602;23.468;2024-01-30T01:07:50;148172.00;;;-4.73;100.00
6204;BME280;3135;42.602;23.468;2024-01-30T01:10:19;148261.63;;;-4.37;100.00
6204;BME280;3135;42.602;23.468;2024-01-30T01:12:45;148282.06;;;-4.29;100.00
6204;BME280;3135;42.602;23.468;2024-01-30T01:15:10;148246.22;;;-4.43;100.00
6204;BME280;3135;42.602;23.468;2024-01-30T01:17:37;148228.31;;;-4.50;100.00
6204;BME280;3135;42.602;23.468;2024-01-30T01:20:03;148205.28;;;-4.59;100.00
6204;BME280;3135;42.602;23.468;2024-01-30T01:22:30;148219.34;;;-4.54;100.00
6204;BME280;3135;42.602;23.468;2024-01-30T01:24:56;148193.78;;;-4.64;100.00
6204;BME280;3135;42.602;23.468;2024-01-30T01:27:21;148218.09;;;-4.54;100.00
6204;BME280;3135;42.602;23.468;2024-01-30T01:29:47;148287.19;;;-4.27;100.00
6204;BME280;3135;42.602;23.468;2024-01-30T01:32:12;148205.28;;;-4.59;100.00
6204;BME280;3135;42.602;23.468;2024-01-30T01:34:37;148214.25;;;-4.56;100.00
6204;BME280;3135;42.602;23.468;2024-01-30T01:37:03;148232.16;;;-4.49;100.00
6204;BME280;3135;42.602;23.468;2024-01-30T01:39:29;148237.28;;;-4.47;100.00
6204;BME280;3135;42.602;23.468;2024-01-30T01:41:54;148247.50;;;-4.43;100.00
6204;BME280;3135;42.602;23.468;2024-01-30T01:44:20;148233.44;;;-4.48;100.00
6204;BME280;3135;42.602;23.468;2024-01-30T01:46:45;148235.97;;;-4.47;100.00
6204;BME280;3135;42.602;23.468;2024-01-30T01:49:11;148205.28;;;-4.59;100.00
6204;BME280;3135;42.602;23.468;2024-01-30T01:51:37;148193.78;;;-4.64;100.00
6204;BME280;3135;42.602;23.468;2024-01-30T01:54:06;148248.81;;;-4.42;100.00
6204;BME280;3135;42.602;23.468;2024-01-30T01:56:33;148180.97;;;-4.69;100.00
6204;BME280;3135;42.602;23.468;2024-01-30T01:59:06;148241.13;;;-4.45;100.00
6204;BME280;3135;42.602;23.468;2024-01-30T02:01:33;148202.75;;;-4.60;100.00
6204;BME280;3135;42.602;23.468;2024-01-30T02:03:59;148151.53;;;-4.81;100.00
6204;BME280;3135;42.602;23.468;2024-01-30T02:06:26;148220.63;;;-4.53;100.00
6204;BME280;3135;42.602;23.468;2024-01-30T02:08:51;148292.31;;;-4.25;100.00
6204;BME280;3135;42.602;23.468;2024-01-30T02:11:17;148273.13;;;-4.32;100.00
6204;BME280;3135;42.602;23.468;2024-01-30T02:13:43;148255.19;;;-4.40;100.00
6204;BME280;3135;42.602;23.468;2024-01-30T02:16:08;148317.88;;;-4.15;100.00
6204;BME280;3135;42.602;23.468;2024-01-30T02:18:34;148312.78;;;-4.17;100.00
6204;BME280;3135;42.602;23.468;2024-01-30T02:21:04;148351.19;;;-4.01;100.00
6204;BME280;3135;42.602;23.468;2024-01-30T02:23:30;148376.78;;;-3.91;100.00
6204;BME280;3135;42.602;23.468;2024-01-30T02:25:58;148419.06;;;-3.74;100.00
6204;BME280;3135;42.602;23.468;2024-01-30T02:28:23;148433.16;;;-3.69;100.00
6204;BME280;3135;42.602;23.468;2024-01-30T02:30:49;148438.28;;;-3.67;100.00
6204;BME280;3135;42.602;23.468;2024-01-30T02:33:14;148430.59;;;-3.70;100.00
6204;BME280;3135;42.602;23.468;2024-01-30T02:35:39;148481.81;;;-3.49;100.00
6204;BME280;3135;42.602;23.468;2024-01-30T02:38:05;148476.72;;;-3.51;100.00
6204;BME280;3135;42.602;23.468;2024-01-30T02:40:31;148463.91;;;-3.56;100.00
6204;BME280;3135;42.602;23.468;2024-01-30T02:42:58;148429.31;;;-3.70;100.00
6204;BME280;3135;42.602;23.468;2024-01-30T02:45:24;148462.63;;;-3.57;100.00
6204;BME280;3135;42.602;23.468;2024-01-30T02:47:49;148426.75;;;-3.71;100.00
6204;BME280;3135;42.602;23.468;2024-01-30T02:50:14;148443.41;;;-3.65;100.00
6204;BME280;3135;42.602;23.468;2024-01-30T02:52:41;148474.16;;;-3.52;100.00
6204;BME280;3135;42.602;23.468;2024-01-30T02:55:09;148484.34;;;-3.48;100.00
6204;BME280;3135;42.602;23.468;2024-01-30T02:57:34;148415.25;;;-3.76;100.00
6204;BME280;3135;42.602;23.468;2024-01-30T03:00:00;148503.59;;;-3.41;100.00
6204;BME280;3135;42.602;23.468;2024-01-30T03:02:26;148527.94;;;-3.31;100.00
6204;BME280;3135;42.602;23.468;2024-01-30T03:04:51;148544.63;;;-3.24;100.00
6204;BME280;3135;42.602;23.468;2024-01-30T03:07:16;148572.78;;;-3.13;100.00
6204;BME280;3135;42.602;23.468;2024-01-30T03:09:42;148433.16;;;-3.69;100.00
6204;BME280;3135;42.602;23.468;2024-01-30T03:12:09;148467.72;;;-3.55;100.00
6204;BME280;3135;42.602;23.468;2024-01-30T03:14:34;148477.97;;;-3.51;100.00
6204;BME280;3135;42.602;23.468;2024-01-30T03:17:00;148538.19;;;-3.27;100.00
6204;BME280;3135;42.602;23.468;2024-01-30T03:19:25;148521.56;;;-3.33;100.00
6204;BME280;3135;42.602;23.468;2024-01-30T03:21:51;148562.53;;;-3.17;100.00
6204;BME280;3135;42.602;23.468;2024-01-30T03:24:16;148620.19;;;-2.94;100.00
6204;BME280;3135;42.602;23.468;2024-01-30T03:26:42;148615.09;;;-2.96;100.00
6204;BME280;3135;42.602;23.468;2024-01-30T03:29:08;148566.34;;;-3.16;100.00
6204;BME280;3135;42.602;23.468;2024-01-30T03:31:34;148486.97;;;-3.47;100.00
6204;BME280;3135;42.602;23.468;2024-01-30T03:33:59;148515.13;;;-3.36;100.00
6204;BME280;3135;42.602;23.468;2024-01-30T03:36:24;148549.72;;;-3.22;100.00
6204;BME280;3135;42.602;23.468;2024-01-30T03:38:50;148562.53;;;-3.17;100.00
6204;BME280;3135;42.602;23.468;2024-01-30T03:41:15;148562.53;;;-3.17;100.00
6204;BME280;3135;42.602;23.468;2024-01-30T03:43:41;148594.56;;;-3.04;100.00
6204;BME280;3135;42.602;23.468;2024-01-30T03:46:06;148501.03;;;-3.42;100.00
6204;BME280;3135;42.602;23.468;2024-01-30T03:48:32;148512.56;;;-3.37;100.00
6204;BME280;3135;42.602;23.468;2024-01-30T03:50:58;148527.94;;;-3.31;100.00
6204;BME280;3135;42.602;23.468;2024-01-30T03:53:23;148480.53;;;-3.50;100.00
6204;BME280;3135;42.602;23.468;2024-01-30T03:55:49;148479.25;;;-3.50;100.00
6204;BME280;3135;42.602;23.468;2024-01-30T03:58:14;148498.50;;;-3.43;100.00
6204;BME280;3135;42.602;23.468;2024-01-30T04:00:39;148458.75;;;-3.58;100.00
6204;BME280;3135;42.602;23.468;2024-01-30T04:03:06;148501.03;;;-3.42;100.00
6204;BME280;3135;42.602;23.468;2024-01-30T04:05:32;148542.00;;;-3.25;100.00
6204;BME280;3135;42.602;23.468;2024-01-30T04:07:57;148492.06;;;-3.45;100.00
6204;BME280;3135;42.602;23.468;2024-01-30T04:10:24;148518.94;;;-3.35;100.00
6204;BME280;3135;42.602;23.468;2024-01-30T04:12:50;148387.03;;;-3.87;100.00
6204;BME280;3135;42.602;23.468;2024-01-30T04:15:17;148465.19;;;-3.56;100.00
6204;BME280;3135;42.602;23.468;2024-01-30T04:17:42;148472.81;;;-3.53;100.00
6204;BME280;3135;42.602;23.468;2024-01-30T04:20:09;148474.16;;;-3.52;100.00
6204;BME280;3135;42.602;23.468;2024-01-30T04:22:37;148503.59;;;-3.41;100.00
6204;BME280;3135;42.602;23.468;2024-01-30T04:25:02;148526.66;;;-3.31;100.00
6204;BME280;3135;42.602;23.468;2024-01-30T04:27:28;148453.66;;;-3.61;100.00
6204;BME280;3135;42.602;23.468;2024-01-30T04:29:53;148449.81;;;-3.62;100.00
6204;BME280;3135;42.602;23.468;2024-01-30T04:32:19;148465.19;;;-3.56;100.00
6204;BME280;3135;42.602;23.468;2024-01-30T04:34:44;148504.88;;;-3.40;100.00
6204;BME280;3135;42.602;23.468;2024-01-30T04:37:10;148497.22;;;-3.43;100.00
6204;BME280;3135;42.602;23.468;2024-01-30T04:39:36;148463.91;;;-3.56;100.00
6204;BME280;3135;42.602;23.468;2024-01-30T04:42:02;148502.31;;;-3.41;100.00
6204;BME280;3135;42.602;23.468;2024-01-30T04:44:28;148347.38;;;-4.03;100.00
6204;BME280;3135;42.602;23.468;2024-01-30T04:46:53;148436.97;;;-3.67;100.00
6204;BME280;3135;42.602;23.468;2024-01-30T04:49:19;148448.50;;;-3.63;100.00
6204;BME280;3135;42.602;23.468;2024-01-30T04:51:44;148461.34;;;-3.57;100.00
6204;BME280;3135;42.602;23.468;2024-01-30T04:54:09;148439.56;;;-3.66;100.00
6204;BME280;3135;42.602;23.468;2024-01-30T04:56:35;148366.53;;;-3.95;100.00
6204;BME280;3135;42.602;23.468;2024-01-30T04:59:02;148251.38;;;-4.41;100.00
6204;BME280;3135;42.602;23.468;2024-01-30T05:01:27;148289.75;;;-4.26;100.00
6204;BME280;3135;42.602;23.468;2024-01-30T05:03:53;148302.53;;;-4.21;100.00
6204;BME280;3135;42.602;23.468;2024-01-30T05:06:27;148328.16;;;-4.11;100.00
6204;BME280;3135;42.602;23.468;2024-01-30T05:08:53;148343.53;;;-4.04;100.00
6204;BME280;3135;42.602;23.468;2024-01-30T05:11:19;148333.28;;;-4.08;100.00
6204;BME280;3135;42.602;23.468;2024-01-30T05:13:44;148321.78;;;-4.13;100.00
6204;BME280;3135;42.602;23.468;2024-01-30T05:16:10;148360.16;;;-3.98;100.00
6204;BME280;3135;42.602;23.468;2024-01-30T05:18:35;148328.16;;;-4.11;100.00
6204;BME280;3135;42.602;23.468;2024-01-30T05:21:02;148401.13;;;-3.81;100.00
6204;BME280;3135;42.602;23.468;2024-01-30T05:23:27;148405.00;;;-3.80;100.00
6204;BME280;3135;42.602;23.468;2024-01-30T05:25:53;148388.31;;;-3.87;100.00
6204;BME280;3135;42.602;23.468;2024-01-30T05:28:18;148384.50;;;-3.88;100.00
6204;BME280;3135;42.602;23.468;2024-01-30T05:30:44;148396.00;;;-3.83;100.00
6204;BME280;3135;42.602;23.468;2024-01-30T05:33:09;148438.28;;;-3.67;100.00
6204;BME280;3135;42.602;23.468;2024-01-30T05:35:37;148385.75;;;-3.88;100.00
6204;BME280;3135;42.602;23.468;2024-01-30T05:38:03;148383.22;;;-3.89;100.00
6204;BME280;3135;42.602;23.468;2024-01-30T05:40:28;148416.50;;;-3.75;100.00
6204;BME280;3135;42.602;23.468;2024-01-30T05:42:54;148372.97;;;-3.93;100.00
6204;BME280;3135;42.602;23.468;2024-01-30T05:45:19;148402.44;;;-3.81;100.00
6204;BME280;3135;42.602;23.468;2024-01-30T05:47:45;148343.53;;;-4.04;100.00
6204;BME280;3135;42.602;23.468;2024-01-30T05:50:10;148420.34;;;-3.74;100.00
6204;BME280;3135;42.602;23.468;2024-01-30T05:52:36;148389.59;;;-3.86;100.00
6204;BME280;3135;42.602;23.468;2024-01-30T05:55:02;148396.00;;;-3.83;100.00
6204;BME280;3135;42.602;23.468;2024-01-30T05:57:28;148338.38;;;-4.06;100.00
6204;BME280;3135;42.602;23.468;2024-01-30T05:59:53;148319.16;;;-4.14;100.00
6204;BME280;3135;42.602;23.468;2024-01-30T06:02:19;148384.50;;;-3.88;100.00
6204;BME280;3135;42.602;23.468;2024-01-30T06:04:44;148422.91;;;-3.73;100.00
6204;BME280;3135;42.602;23.468;2024-01-30T06:07:10;148397.28;;;-3.83;100.00
6204;BME280;3135;42.602;23.468;2024-01-30T06:09:35;148405.00;;;-3.80;100.00
6204;BME280;3135;42.602;23.468;2024-01-30T06:12:00;148360.16;;;-3.98;100.00
6204;BME280;3135;42.602;23.468;2024-01-30T06:14:26;148355.06;;;-4.00;100.00
6204;BME280;3135;42.602;23.468;2024-01-30T06:16:51;148393.47;;;-3.84;100.00
6204;BME280;3135;42.602;23.468;2024-01-30T06:19:17;148426.75;;;-3.71;100.00
6204;BME280;3135;42.602;23.468;2024-01-30T06:21:42;148429.31;;;-3.70;100.00
6204;BME280;3135;42.602;23.468;2024-01-30T06:24:08;148433.16;;;-3.69;100.00
6204;BME280;3135;42.602;23.468;2024-01-30T06:26:34;148416.50;;;-3.75;100.00
6204;BME280;3135;42.602;23.468;2024-01-30T06:28:59;148443.41;;;-3.65;100.00
6204;BME280;3135;42.602;23.468;2024-01-30T06:31:25;148396.00;;;-3.83;100.00
6204;BME280;3135;42.602;23.468;2024-01-30T06:33:50;148434.41;;;-3.68;100.00
6204;BME280;3135;42.602;23.468;2024-01-30T06:36:16;148453.66;;;-3.61;100.00
6204;BME280;3135;42.602;23.468;2024-01-30T06:38:41;148410.09;;;-3.78;100.00
6204;BME280;3135;42.602;23.468;2024-01-30T06:41:07;148417.78;;;-3.75;100.00
6204;BME280;3135;42.602;23.468;2024-01-30T06:43:32;148466.44;;;-3.55;100.00
6204;BME280;3135;42.602;23.468;2024-01-30T06:45:57;148457.47;;;-3.59;100.00
6204;BME280;3135;42.602;23.468;2024-01-30T06:48:23;148442.13;;;-3.65;100.00
6204;BME280;3135;42.602;23.468;2024-01-30T06:50:48;148438.28;;;-3.67;100.00
6204;BME280;3135;42.602;23.468;2024-01-30T06:53:14;148548.44;;;-3.23;100.00
6204;BME280;3135;42.602;23.468;2024-01-30T06:55:40;148575.34;;;-3.12;100.00
6204;BME280;3135;42.602;23.468;2024-01-30T06:58:05;148548.44;;;-3.23;100.00
6204;BME280;3135;42.602;23.468;2024-01-30T07:00:31;148608.66;;;-2.99;100.00
6204;BME280;3135;42.602;23.468;2024-01-30T07:02:56;148618.91;;;-2.95;100.00
6204;BME280;3135;42.602;23.468;2024-01-30T07:05:21;148568.94;;;-3.15;100.00
6204;BME280;3135;42.602;23.468;2024-01-30T07:07:47;148625.31;;;-2.92;100.00
6204;BME280;3135;42.602;23.468;2024-01-30T07:10:13;148589.41;;;-3.06;100.00
6204;BME280;3135;42.602;23.468;2024-01-30T07:12:38;148571.50;;;-3.14;100.00
6204;BME280;3135;42.602;23.468;2024-01-30T07:15:04;148571.50;;;-3.14;100.00
6204;BME280;3135;42.602;23.468;2024-01-30T07:17:33;148575.34;;;-3.12;100.00
6204;BME280;3135;42.602;23.468;2024-01-30T07:19:58;148597.13;;;-3.03;100.00
6204;BME280;3135;42.602;23.468;2024-01-30T07:22:24;148586.88;;;-3.08;100.00
6204;BME280;3135;42.602;23.468;2024-01-30T07:24:50;148627.91;;;-2.91;100.00
6204;BME280;3135;42.602;23.468;2024-01-30T07:27:17;148584.31;;;-3.09;100.00
6204;BME280;3135;42.602;23.468;2024-01-30T07:29:43;148612.50;;;-2.97;100.00
6204;BME280;3135;42.602;23.468;2024-01-30T07:32:08;148589.41;;;-3.06;100.00
6204;BME280;3135;42.602;23.468;2024-01-30T07:34:34;148558.69;;;-3.19;100.00
6204;BME280;3135;42.602;23.468;2024-01-30T07:36:59;148545.88;;;-3.24;100.00
6204;BME280;3135;42.602;23.468;2024-01-30T07:39:25;148552.25;;;-3.21;100.00
6204;BME280;3135;42.602;23.468;2024-01-30T07:41:50;148589.41;;;-3.06;100.00
6204;BME280;3135;42.602;23.468;2024-01-30T07:44:15;148574.06;;;-3.13;100.00
6204;BME280;3135;42.602;23.468;2024-01-30T07:46:41;148589.41;;;-3.06;100.00
6204;BME280;3135;42.602;23.468;2024-01-30T07:49:06;148543.28;;;-3.25;100.00
6204;BME280;3135;42.602;23.468;2024-01-30T07:51:32;148504.88;;;-3.40;100.00
6204;BME280;3135;42.602;23.468;2024-01-30T07:53:58;148581.75;;;-3.10;100.00
6204;BME280;3135;42.602;23.468;2024-01-30T07:56:23;148647.09;;;-2.84;100.00
6204;BME280;3135;42.602;23.468;2024-01-30T07:58:49;148577.88;;;-3.11;100.00
6204;BME280;3135;42.602;23.468;2024-01-30T08:01:15;148581.75;;;-3.10;100.00
6204;BME280;3135;42.602;23.468;2024-01-30T08:03:41;148572.78;;;-3.13;100.00
6204;BME280;3135;42.602;23.468;2024-01-30T08:06:07;148612.50;;;-2.97;100.00
6204;BME280;3135;42.602;23.468;2024-01-30T08:08:32;148615.09;;;-2.96;100.00
6204;BME280;3135;42.602;23.468;2024-01-30T08:10:58;148574.06;;;-3.13;100.00
6204;BME280;3135;42.602;23.468;2024-01-30T08:13:23;148676.59;;;-2.72;100.00
6204;BME280;3135;42.602;23.468;2024-01-30T08:15:49;148633.00;;;-2.89;100.00
6204;BME280;3135;42.602;23.468;2024-01-30T08:18:14;148691.97;;;-2.66;100.00
6204;BME280;3135;42.602;23.468;2024-01-30T08:20:39;148750.94;;;-2.42;100.00
6204;BME280;3135;42.602;23.468;2024-01-30T08:23:05;148699.69;;;-2.63;100.00
6204;BME280;3135;42.602;23.468;2024-01-30T08:25:30;148638.13;;;-2.87;100.00
6204;BME280;3135;42.602;23.468;2024-01-30T08:27:56;148699.69;;;-2.63;100.00
6204;BME280;3135;42.602;23.468;2024-01-30T08:30:22;148725.31;;;-2.52;100.00
6204;BME280;3135;42.602;23.468;2024-01-30T08:32:47;148748.38;;;-2.43;100.00
6204;BME280;3135;42.602;23.468;2024-01-30T08:35:13;148829.19;;;-2.11;100.00
6204;BME280;3135;42.602;23.468;2024-01-30T08:37:41;148845.84;;;-2.04;100.00
6204;BME280;3135;42.602;23.468;2024-01-30T08:40:07;148879.19;;;-1.91;100.00
6204;BME280;3135;42.602;23.468;2024-01-30T08:42:33;148857.38;;;-2.00;100.00
6204;BME280;3135;42.602;23.468;2024-01-30T08:44:59;148856.09;;;-2.00;100.00
6204;BME280;3135;42.602;23.468;2024-01-30T08:47:24;148877.91;;;-1.92;100.00
6204;BME280;3135;42.602;23.468;2024-01-30T08:49:50;148847.09;;;-2.04;100.00
6204;BME280;3135;42.602;23.468;2024-01-30T08:52:16;148845.84;;;-2.04;100.00
6204;BME280;3135;42.602;23.468;2024-01-30T08:54:42;148853.56;;;-2.01;100.00
6204;BME280;3135;42.602;23.468;2024-01-30T08:57:08;148917.66;;;-1.76;100.00
6204;BME280;3135;42.602;23.468;2024-01-30T08:59:33;148875.38;;;-1.93;100.00
6204;BME280;3135;42.602;23.468;2024-01-30T09:01:59;148833.00;;;-2.10;100.00
6204;BME280;3135;42.602;23.468;2024-01-30T09:04:24;148884.31;;;-1.89;100.00
6204;BME280;3135;42.602;23.468;2024-01-30T09:06:50;148907.41;;;-1.80;100.00
6204;BME280;3135;42.602;23.468;2024-01-30T09:09:16;148935.66;;;-1.69;100.00
6204;BME280;3135;42.602;23.468;2024-01-30T09:11:43;148913.84;;;-1.77;100.00
6204;BME280;3135;42.602;23.468;2024-01-30T09:14:08;148894.56;;;-1.85;100.00
6204;BME280;3135;42.602;23.468;2024-01-30T09:16:34;148943.31;;;-1.66;100.00
6204;BME280;3135;42.602;23.468;2024-01-30T09:18:59;148904.84;;;-1.81;100.00
6204;BME280;3135;42.602;23.468;2024-01-30T09:21:24;148856.09;;;-2.00;100.00
6204;BME280;3135;42.602;23.468;2024-01-30T09:23:51;148901.00;;;-1.83;100.00
6204;BME280;3135;42.602;23.468;2024-01-30T09:26:17;149012.63;;;-1.38;100.00
6204;BME280;3135;42.602;23.468;2024-01-30T09:28:42;148979.25;;;-1.51;100.00
6204;BME280;3135;42.602;23.468;2024-01-30T09:31:11;148983.13;;;-1.50;100.00
6204;BME280;3135;42.602;23.468;2024-01-30T09:33:37;148961.31;;;-1.59;100.00
6204;BME280;3135;42.602;23.468;2024-01-30T09:36:03;148988.25;;;-1.48;100.00
6204;BME280;3135;42.602;23.468;2024-01-30T09:38:28;148981.84;;;-1.50;100.00
6204;BME280;3135;42.602;23.468;2024-01-30T09:40:54;148988.25;;;-1.48;100.00
6204;BME280;3135;42.602;23.468;2024-01-30T09:43:23;148936.94;;;-1.68;100.00
6204;BME280;3135;42.602;23.468;2024-01-30T09:45:50;148948.47;;;-1.64;100.00
6204;BME280;3135;42.602;23.468;2024-01-30T09:48:16;148995.94;;;-1.45;100.00
6204;BME280;3135;42.602;23.468;2024-01-30T09:50:41;149004.91;;;-1.41;100.00
6204;BME280;3135;42.602;23.468;2024-01-30T09:53:11;148971.56;;;-1.55;100.00
6204;BME280;3135;42.602;23.468;2024-01-30T09:55:39;149012.63;;;-1.38;100.00
6204;BME280;3135;42.602;23.468;2024-01-30T09:58:08;149007.50;;;-1.40;100.00
6204;BME280;3135;42.602;23.468;2024-01-30T10:00:33;149028.00;;;-1.32;100.00
6204;BME280;3135;42.602;23.468;2024-01-30T10:02:58;149022.88;;;-1.34;100.00
6204;BME280;3135;42.602;23.468;2024-01-30T10:05:27;149035.72;;;-1.29;100.00
6204;BME280;3135;42.602;23.468;2024-01-30T10:07:54;149087.03;;;-1.09;100.00
6204;BME280;3135;42.602;23.468;2024-01-30T10:10:23;149053.72;;;-1.22;100.00
6204;BME280;3135;42.602;23.468;2024-01-30T10:12:49;149094.75;;;-1.06;100.00
6204;BME280;3135;42.602;23.468;2024-01-30T10:15:17;149087.03;;;-1.09;100.00
6204;BME280;3135;42.602;23.468;2024-01-30T10:17:44;149067.81;;;-1.16;100.00
6204;BME280;3135;42.602;23.468;2024-01-30T10:20:10;149087.03;;;-1.09;100.00
6204;BME280;3135;42.602;23.468;2024-01-30T10:22:36;149076.81;;;-1.13;100.00
6204;BME280;3135;42.602;23.468;2024-01-30T10:25:02;149074.22;;;-1.14;100.00
6204;BME280;3135;42.602;23.468;2024-01-30T10:27:28;149108.88;;;-1.00;100.00
6204;BME280;3135;42.602;23.468;2024-01-30T10:29:55;149063.94;;;-1.18;100.00
6204;BME280;3135;42.602;23.468;2024-01-30T10:32:21;149087.03;;;-1.09;100.00
6204;BME280;3135;42.602;23.468;2024-01-30T10:34:46;149046.00;;;-1.25;100.00
6204;BME280;3135;42.602;23.468;2024-01-30T10:37:12;149020.34;;;-1.35;100.00
6204;BME280;3135;42.602;23.468;2024-01-30T10:39:41;149089.66;;;-1.08;100.00
6204;BME280;3135;42.602;23.468;2024-01-30T10:42:13;149081.94;;;-1.11;100.00
6204;BME280;3135;42.602;23.468;2024-01-30T10:44:47;149097.31;;;-1.05;100.00
6204;BME280;3135;42.602;23.468;2024-01-30T10:47:17;149096.03;;;-1.05;100.00
6204;BME280;3135;42.602;23.468;2024-01-30T10:49:43;149156.38;;;-0.81;100.00
6204;BME280;3135;42.602;23.468;2024-01-30T10:52:13;149046.00;;;-1.25;100.00
6204;BME280;3135;42.602;23.468;2024-01-30T10:54:40;149055.00;;;-1.21;100.00
6204;BME280;3135;42.602;23.468;2024-01-30T10:57:05;149043.44;;;-1.26;100.00
6204;BME280;3135;42.602;23.468;2024-01-30T10:59:31;149015.16;;;-1.37;100.00
6204;BME280;3135;42.602;23.468;2024-01-30T11:01:58;148960.03;;;-1.59;100.00
6204;BME280;3135;42.602;23.468;2024-01-30T11:04:24;149022.88;;;-1.34;100.00
6204;BME280;3135;42.602;23.468;2024-01-30T11:06:50;149102.47;;;-1.02;100.00
6204;BME280;3135;42.602;23.468;2024-01-30T11:09:17;149147.44;;;-0.85;100.00
6204;BME280;3135;42.602;23.468;2024-01-30T11:11:56;149165.38;;;-0.78;100.00
6204;BME280;3135;42.602;23.468;2024-01-30T11:14:26;149153.81;;;-0.82;100.00
6204;BME280;3135;42.602;23.468;2024-01-30T11:16:52;149167.94;;;-0.77;100.00
6204;BME280;3135;42.602;23.468;2024-01-30T11:19:25;149147.44;;;-0.85;100.00
6204;BME280;3135;42.602;23.468;2024-01-30T11:21:53;149120.44;;;-0.95;100.00
6204;BME280;3135;42.602;23.468;2024-01-30T11:24:23;149058.81;;;-1.20;100.00
6204;BME280;3135;42.602;23.468;2024-01-30T11:26:49;149034.44;;;-1.30;100.00
6204;BME280;3135;42.602;23.468;2024-01-30T11:29:18;149074.22;;;-1.14;100.00
6204;BME280;3135;42.602;23.468;2024-01-30T11:31:54;149079.38;;;-1.12;100.00
6204;BME280;3135;42.602;23.468;2024-01-30T11:34:20;149013.91;;;-1.38;100.00
6204;BME280;3135;42.602;23.468;2024-01-30T11:36:57;149097.31;;;-1.05;100.00
6204;BME280;3135;42.602;23.468;2024-01-30T11:39:27;149079.38;;;-1.12;100.00
6204;BME280;3135;42.602;23.468;2024-01-30T11:41:54;149179.50;;;-0.72;100.00
6204;BME280;3135;42.602;23.468;2024-01-30T11:44:20;149133.25;;;-0.90;100.00
6204;BME280;3135;42.602;23.468;2024-01-30T11:46:50;149176.94;;;-0.73;100.00
6204;BME280;3135;42.602;23.468;2024-01-30T11:49:16;149102.47;;;-1.02;100.00
6204;BME280;3135;42.602;23.468;2024-01-30T11:51:48;149107.59;;;-1.00;100.00
6204;BME280;3135;42.602;23.468;2024-01-30T11:54:17;149153.81;;;-0.82;100.00
6204;BME280;3135;42.602;23.468;2024-01-30T11:56:43;149189.78;;;-0.68;100.00
6204;BME280;3135;42.602;23.468;2024-01-30T11:59:08;149256.56;;;-0.41;100.00
6204;BME280;3135;42.602;23.468;2024-01-30T12:01:34;149220.63;;;-0.56;100.00
6204;BME280;3135;42.602;23.468;2024-01-30T12:04:00;149194.94;;;-0.66;100.00
6204;BME280;3135;42.602;23.468;2024-01-30T12:06:25;149202.63;;;-0.63;100.00
6204;BME280;3135;42.602;23.468;2024-01-30T12:09:01;149179.50;;;-0.72;100.00
6204;BME280;3135;42.602;23.468;2024-01-30T12:11:29;149205.16;;;-0.62;100.00
6204;BME280;3135;42.602;23.468;2024-01-30T12:13:55;149192.34;;;-0.67;100.00
6204;BME280;3135;42.602;23.468;2024-01-30T12:16:21;149269.41;;;-0.36;100.00
6204;BME280;3135;42.602;23.468;2024-01-30T12:18:48;149229.56;;;-0.52;100.00
6204;BME280;3135;42.602;23.468;2024-01-30T12:21:16;149292.53;;;-0.27;100.00
6204;BME280;3135;42.602;23.468;2024-01-30T12:23:43;149280.97;;;-0.32;100.00
6204;BME280;3135;42.602;23.468;2024-01-30T12:26:08;149304.09;;;-0.22;100.00
6204;BME280;3135;42.602;23.468;2024-01-30T12:28:34;149282.25;;;-0.31;100.00
6204;BME280;3135;42.602;23.468;2024-01-30T12:31:03;149284.81;;;-0.30;100.00
6204;BME280;3135;42.602;23.468;2024-01-30T12:33:29;149278.41;;;-0.33;100.00
6204;BME280;3135;42.602;23.468;2024-01-30T12:35:56;149215.44;;;-0.58;100.00
6204;BME280;3135;42.602;23.468;2024-01-30T12:38:23;149243.72;;;-0.46;100.00
6204;BME280;3135;42.602;23.468;2024-01-30T12:40:50;149278.41;;;-0.33;100.00
6204;BME280;3135;42.602;23.468;2024-01-30T12:43:19;149310.50;;;-0.20;100.00
6204;BME280;3135;42.602;23.468;2024-01-30T12:45:44;149275.81;;;-0.34;100.00